Time;durP1;ratioP1;P1;durP2;ratioP2;P2;SDS_P1;SDS_P2;PMS_P1;PMS_P2;Temp;Humidity;BMP_temperature;BMP_pressure;BME280_temperature;BME280_humidity;BME280_pressure;Samples;Min_cycle;Max_cycle;Signal;HPM_P1;HPM_P2
2022/10/10 00:01:44;;;;;;;0.20;0.10;;;;;;;;;;4943155;28;20055;-84
2022/10/10 00:04:10;;;;;;;0.20;0.10;;;;;;;;;;4928368;28;20533;-83
2022/10/10 00:06:37;;;;;;;0.20;0.10;;;;;;;;;;4941762;28;21029;-84
2022/10/10 00:09:03;;;;;;;0.20;0.10;;;;;;;;;;4929447;28;20043;-83
2022/10/10 00:11:30;;;;;;;0.20;0.10;;;;;;;;;;4944055;28;20536;-84
2022/10/10 00:13:56;;;;;;;0.38;0.13;;;;;;;;;;4906512;28;20035;-84
2022/10/10 00:16:22;;;;;;;0.20;0.10;;;;;;;;;;4915524;28;20035;-84
2022/10/10 00:18:55;;;;;;;0.20;0.10;;;;;;;;;;5100808;27;20512;-82
2022/10/10 00:21:21;;;;;;;0.20;0.10;;;;;;;;;;5067883;27;20043;-81
2022/10/10 00:23:47;;;;;;;0.20;0.10;;;;;;;;;;5084104;28;20323;-82
2022/10/10 00:26:13;;;;;;;0.20;0.10;;;;;;;;;;5071468;28;20035;-82
2022/10/10 00:28:39;;;;;;;0.20;0.10;;;;;;;;;;5077887;28;20058;-82
2022/10/10 00:31:07;;;;;;;0.20;0.10;;;;;;;;;;5075606;27;21116;-82
2022/10/10 00:33:33;;;;;;;0.20;0.10;;;;;;;;;;5075569;28;20102;-82
2022/10/10 00:35:59;;;;;;;0.20;0.10;;;;;;;;;;5098407;27;21790;-81
2022/10/10 00:38:25;;;;;;;0.20;0.10;;;;;;;;;;5074588;28;20521;-82
2022/10/10 00:40:55;;;;;;;0.20;0.10;;;;;;;;;;5090359;27;20110;-83
2022/10/10 00:43:23;;;;;;;0.20;0.10;;;;;;;;;;5078188;27;20039;-84
2022/10/10 00:45:49;;;;;;;0.20;0.10;;;;;;;;;;5079825;27;20036;-83
2022/10/10 00:48:15;;;;;;;0.20;0.10;;;;;;;;;;5093511;27;20231;-82
2022/10/10 00:50:47;;;;;;;0.20;0.10;;;;;;;;;;5072218;27;20048;-83
2022/10/10 00:53:15;;;;;;;0.20;0.10;;;;;;;;;;5070908;27;20071;-82
2022/10/10 00:55:41;;;;;;;0.28;0.10;;;;;;;;;;5075574;27;20054;-83
2022/10/10 00:58:08;;;;;;;0.20;0.10;;;;;;;;;;5058743;27;20044;-83
2022/10/10 01:00:34;;;;;;;0.30;0.30;;;;;;;;;;5076339;27;22792;-83
2022/10/10 01:03:00;;;;;;;0.20;0.10;;;;;;;;;;5074641;27;20039;-83
2022/10/10 01:05:27;;;;;;;0.20;0.10;;;;;;;;;;5070057;27;20558;-83
2022/10/10 01:07:53;;;;;;;0.20;0.10;;;;;;;;;;5089444;27;20040;-83
2022/10/10 01:10:21;;;;;;;0.20;0.10;;;;;;;;;;5077754;27;20294;-83
2022/10/10 01:12:47;;;;;;;0.20;0.10;;;;;;;;;;5052237;27;20043;-83
2022/10/10 01:15:26;;;;;;;0.20;0.10;;;;;;;;;;5069090;27;20059;-84
2022/10/10 01:17:55;;;;;;;0.20;0.10;;;;;;;;;;5076945;28;20040;-84
2022/10/10 01:20:27;;;;;;;0.20;0.10;;;;;;;;;;5097112;27;20063;-82
2022/10/10 01:23:11;;;;;;;0.20;0.10;;;;;;;;;;5071923;28;20031;-82
2022/10/10 01:26:04;;;;;;;0.20;0.10;;;;;;;;;;5071774;28;20195;-82
2022/10/10 01:28:44;;;;;;;0.20;0.10;;;;;;;;;;5063392;28;20580;-86
2022/10/10 01:31:12;;;;;;;0.20;0.10;;;;;;;;;;5058755;28;20078;-83
2022/10/10 01:33:58;;;;;;;0.20;0.10;;;;;;;;;;5065605;28;20047;-84
2022/10/10 01:36:24;;;;;;;0.20;0.10;;;;;;;;;;5033182;28;20048;-83
2022/10/10 01:38:53;;;;;;;0.20;0.10;;;;;;;;;;5081119;27;20140;-83
2022/10/10 01:41:23;;;;;;;0.20;0.10;;;;;;;;;;5061276;27;20044;-84
2022/10/10 01:43:58;;;;;;;0.30;0.25;;;;;;;;;;5066019;28;20036;-84
2022/10/10 01:46:27;;;;;;;0.20;0.10;;;;;;;;;;5086751;28;20545;-86
2022/10/10 01:48:55;;;;;;;0.20;0.10;;;;;;;;;;5067054;28;20043;-83
2022/10/10 01:51:40;;;;;;;0.20;0.10;;;;;;;;;;5064986;27;20040;-81
2022/10/10 01:54:06;;;;;;;0.20;0.10;;;;;;;;;;5069712;27;20040;-83
2022/10/10 01:56:41;;;;;;;0.20;0.10;;;;;;;;;;5079321;28;20114;-83
2022/10/10 01:59:20;;;;;;;0.20;0.10;;;;;;;;;;5082486;28;20127;-83
2022/10/10 02:01:59;;;;;;;0.20;0.13;;;;;;;;;;5065637;27;20460;-85
2022/10/10 02:04:37;;;;;;;0.20;0.10;;;;;;;;;;5077613;22;20047;-87
2022/10/10 02:07:14;;;;;;;0.20;0.10;;;;;;;;;;5041771;28;20331;-85
2022/10/10 02:09:45;;;;;;;0.20;0.10;;;;;;;;;;5046674;28;20432;-85
2022/10/10 02:12:11;;;;;;;0.20;0.10;;;;;;;;;;5045886;28;20055;-86
2022/10/10 02:14:41;;;;;;;0.20;0.10;;;;;;;;;;5075455;28;20055;-84
2022/10/10 02:17:09;;;;;;;0.20;0.10;;;;;;;;;;5072984;28;20059;-85
2022/10/10 02:19:35;;;;;;;0.20;0.10;;;;;;;;;;5089862;28;20043;-84
2022/10/10 02:22:02;;;;;;;0.20;0.10;;;;;;;;;;5053571;28;20040;-85
2022/10/10 02:24:28;;;;;;;0.20;0.10;;;;;;;;;;5071290;28;20999;-86
2022/10/10 02:26:59;;;;;;;0.20;0.10;;;;;;;;;;5064404;27;20047;-85
2022/10/10 02:29:36;;;;;;;0.20;0.10;;;;;;;;;;5071410;28;20039;-86
2022/10/10 02:32:05;;;;;;;0.20;0.10;;;;;;;;;;5067769;28;20058;-83
2022/10/10 02:34:36;;;;;;;0.20;0.10;;;;;;;;;;5087354;28;20084;-87
2022/10/10 02:37:04;;;;;;;0.20;0.10;;;;;;;;;;5064448;28;20084;-83
2022/10/10 02:39:32;;;;;;;0.20;0.10;;;;;;;;;;5069605;28;20119;-86
2022/10/10 02:41:58;;;;;;;0.20;0.10;;;;;;;;;;5067205;28;20036;-87
2022/10/10 02:44:25;;;;;;;0.20;0.10;;;;;;;;;;5049576;28;20062;-87
2022/10/10 02:46:51;;;;;;;0.25;0.20;;;;;;;;;;5086105;28;20067;-85
2022/10/10 02:49:26;;;;;;;0.20;0.10;;;;;;;;;;5070785;28;20040;-85
2022/10/10 02:51:52;;;;;;;0.20;0.10;;;;;;;;;;5062777;28;20039;-85
2022/10/10 02:54:18;;;;;;;0.20;0.10;;;;;;;;;;5053092;28;20051;-86
2022/10/10 02:56:44;;;;;;;0.20;0.10;;;;;;;;;;5049513;28;20118;-84
2022/10/10 02:59:10;;;;;;;0.20;0.10;;;;;;;;;;5054821;28;20128;-88
2022/10/10 03:01:36;;;;;;;0.45;0.20;;;;;;;;;;5050020;28;20027;-85
2022/10/10 03:04:02;;;;;;;0.20;0.10;;;;;;;;;;5092778;28;20126;-85
2022/10/10 03:06:28;;;;;;;0.20;0.10;;;;;;;;;;5074691;28;20078;-87
2022/10/10 03:08:54;;;;;;;0.20;0.20;;;;;;;;;;5070351;28;20493;-87
2022/10/10 03:11:20;;;;;;;0.20;0.10;;;;;;;;;;5052995;28;20031;-86
2022/10/10 03:13:46;;;;;;;0.50;0.30;;;;;;;;;;5067914;28;20046;-86
2022/10/10 03:16:13;;;;;;;0.20;0.10;;;;;;;;;;5054173;28;20043;-83
2022/10/10 03:18:39;;;;;;;0.20;0.10;;;;;;;;;;5068482;28;20092;-87
2022/10/10 03:21:05;;;;;;;0.20;0.10;;;;;;;;;;5065561;28;20044;-84
2022/10/10 03:23:34;;;;;;;0.20;0.10;;;;;;;;;;5069155;28;20555;-89
2022/10/10 03:26:00;;;;;;;0.20;0.10;;;;;;;;;;5054950;28;20044;-86
2022/10/10 03:28:29;;;;;;;0.20;0.10;;;;;;;;;;5048261;28;20177;-86
2022/10/10 03:30:58;;;;;;;0.20;0.10;;;;;;;;;;5066461;28;20072;-87
2022/10/10 03:33:24;;;;;;;0.20;0.10;;;;;;;;;;5070108;28;20077;-87
2022/10/10 03:35:50;;;;;;;0.20;0.10;;;;;;;;;;5064868;28;20039;-85
2022/10/10 03:38:16;;;;;;;0.20;0.10;;;;;;;;;;5056054;28;20035;-87
2022/10/10 03:40:46;;;;;;;0.20;0.05;;;;;;;;;;5073196;28;20043;-89
2022/10/10 03:43:12;;;;;;;0.20;0.10;;;;;;;;;;5072630;28;20044;-89
2022/10/10 03:45:41;;;;;;;0.20;0.10;;;;;;;;;;5078517;28;20039;-85
2022/10/10 03:48:07;;;;;;;0.30;0.20;;;;;;;;;;5070564;28;20043;-86
2022/10/10 03:50:33;;;;;;;0.20;0.10;;;;;;;;;;5065677;28;20044;-85
2022/10/10 03:52:59;;;;;;;0.20;0.10;;;;;;;;;;5052727;28;20131;-87
2022/10/10 03:55:25;;;;;;;0.20;0.10;;;;;;;;;;5053965;28;20036;-86
2022/10/10 03:57:51;;;;;;;0.20;0.10;;;;;;;;;;5052555;28;20622;-85
2022/10/10 04:00:17;;;;;;;0.20;0.10;;;;;;;;;;5070980;28;20035;-87
2022/10/10 04:02:43;;;;;;;0.20;0.10;;;;;;;;;;5064150;28;20067;-84
2022/10/10 04:05:09;;;;;;;0.20;0.10;;;;;;;;;;5052146;28;20054;-84
2022/10/10 04:07:35;;;;;;;0.20;0.10;;;;;;;;;;5067828;28;20043;-88
2022/10/10 04:10:02;;;;;;;0.20;0.10;;;;;;;;;;5089501;28;20527;-89
2022/10/10 04:12:28;;;;;;;0.20;0.10;;;;;;;;;;5068776;28;20047;-88
2022/10/10 04:14:54;;;;;;;0.20;0.10;;;;;;;;;;5051399;28;20044;-89
2022/10/10 04:17:20;;;;;;;0.20;0.10;;;;;;;;;;5086301;28;20181;-87
2022/10/10 04:19:46;;;;;;;0.20;0.10;;;;;;;;;;5054719;28;20451;-87
2022/10/10 04:22:13;;;;;;;2.88;0.20;;;;;;;;;;5068854;28;20040;-85
2022/10/10 04:24:39;;;;;;;0.20;0.13;;;;;;;;;;5069870;28;20051;-88
2022/10/10 04:27:10;;;;;;;0.20;0.10;;;;;;;;;;5075843;28;20134;-88
2022/10/10 04:29:42;;;;;;;0.20;0.10;;;;;;;;;;5056712;28;20411;-88
2022/10/10 04:32:08;;;;;;;0.20;0.10;;;;;;;;;;5071368;28;20051;-89
2022/10/10 04:34:34;;;;;;;0.20;0.10;;;;;;;;;;5073594;28;20592;-88
2022/10/10 04:37:10;;;;;;;0.20;0.10;;;;;;;;;;5094023;28;20051;-91
2022/10/10 04:39:42;;;;;;;0.20;0.10;;;;;;;;;;5082146;28;20059;-91
2022/10/10 04:42:16;;;;;;;0.20;0.10;;;;;;;;;;5078763;28;20393;-89
2022/10/10 04:44:42;;;;;;;0.20;0.10;;;;;;;;;;5067994;28;20119;-89
2022/10/10 04:47:13;;;;;;;0.20;0.10;;;;;;;;;;5073964;28;20040;-89
2022/10/10 04:49:42;;;;;;;0.20;0.10;;;;;;;;;;5051016;28;20695;-88
2022/10/10 04:52:20;;;;;;;;;;;;;;;;;;;;;
2022/10/10 04:54:55;;;;;;;0.20;0.10;;;;;;;;;;5085496;28;20185;-86
2022/10/10 04:57:36;;;;;;;0.20;0.10;;;;;;;;;;5075049;28;20059;-89
2022/10/10 05:00:04;;;;;;;0.30;0.20;;;;;;;;;;5048954;28;20056;-87
2022/10/10 05:02:30;;;;;;;0.20;0.10;;;;;;;;;;5065735;28;20043;-87
2022/10/10 05:04:56;;;;;;;0.20;0.10;;;;;;;;;;5055869;28;20086;-85
2022/10/10 05:07:22;;;;;;;0.20;0.10;;;;;;;;;;5075029;28;20059;-87
2022/10/10 05:09:51;;;;;;;0.40;0.30;;;;;;;;;;5072670;28;20046;-86
2022/10/10 05:12:17;;;;;;;0.20;0.10;;;;;;;;;;5074526;28;20028;-86
2022/10/10 05:14:43;;;;;;;0.20;0.20;;;;;;;;;;5072837;28;20055;-85
2022/10/10 05:17:12;;;;;;;0.20;0.20;;;;;;;;;;5069747;28;20702;-84
2022/10/10 05:19:38;;;;;;;0.20;0.10;;;;;;;;;;5067036;28;20104;-86
2022/10/10 05:22:07;;;;;;;0.20;0.10;;;;;;;;;;5052529;28;20044;-86
2022/10/10 05:24:33;;;;;;;0.20;0.10;;;;;;;;;;5051875;28;20063;-86
2022/10/10 05:27:02;;;;;;;0.22;0.22;;;;;;;;;;5066109;28;20051;-85
2022/10/10 05:29:28;;;;;;;0.20;0.20;;;;;;;;;;5073328;28;20042;-86
2022/10/10 05:31:57;;;;;;;0.20;0.10;;;;;;;;;;5078190;28;20032;-88
2022/10/10 05:34:32;;;;;;;0.20;0.10;;;;;;;;;;5092746;27;20491;-90
2022/10/10 05:36:58;;;;;;;0.20;0.10;;;;;;;;;;5076124;28;20538;-86
2022/10/10 05:39:24;;;;;;;0.20;0.10;;;;;;;;;;5074890;28;20051;-83
2022/10/10 05:41:56;;;;;;;0.20;0.10;;;;;;;;;;5075908;28;20070;-87
2022/10/10 05:44:25;;;;;;;0.20;0.10;;;;;;;;;;5069762;28;20741;-87
2022/10/10 05:46:54;;;;;;;0.20;0.10;;;;;;;;;;5059133;28;20079;-86
2022/10/10 05:49:20;;;;;;;0.20;0.10;;;;;;;;;;5095352;28;20043;-87
2022/10/10 05:51:49;;;;;;;0.20;0.10;;;;;;;;;;5077011;28;20036;-88
2022/10/10 05:54:15;;;;;;;0.20;0.10;;;;;;;;;;5093194;28;20071;-88
2022/10/10 05:57:01;;;;;;;0.25;0.20;;;;;;;;;;5063470;28;20122;-89
2022/10/10 05:59:30;;;;;;;0.25;0.20;;;;;;;;;;5058646;28;20398;-86
2022/10/10 06:01:56;;;;;;;0.20;0.10;;;;;;;;;;5073267;28;20040;-88
2022/10/10 06:04:23;;;;;;;0.28;0.15;;;;;;;;;;5047917;28;20054;-83
2022/10/10 06:06:49;;;;;;;0.20;0.10;;;;;;;;;;5070733;28;20600;-85
2022/10/10 06:09:15;;;;;;;0.20;0.10;;;;;;;;;;5066921;28;20119;-85
2022/10/10 06:11:41;;;;;;;0.20;0.10;;;;;;;;;;5072870;28;20036;-85
2022/10/10 06:14:08;;;;;;;0.20;0.10;;;;;;;;;;5073038;28;20463;-85
2022/10/10 06:16:38;;;;;;;0.20;0.10;;;;;;;;;;5068366;28;20600;-88
2022/10/10 06:19:04;;;;;;;1.15;0.95;;;;;;;;;;5068685;28;20174;-89
2022/10/10 06:21:30;;;;;;;0.20;0.10;;;;;;;;;;5090482;28;20390;-85
2022/10/10 06:23:57;;;;;;;0.20;0.10;;;;;;;;;;5084056;28;20031;-85
2022/10/10 06:26:23;;;;;;;0.20;0.10;;;;;;;;;;5068899;28;20048;-87
2022/10/10 06:28:52;;;;;;;0.20;0.10;;;;;;;;;;5072925;27;20039;-84
2022/10/10 06:31:22;;;;;;;0.43;0.20;;;;;;;;;;5104510;27;20044;-88
2022/10/10 06:33:49;;;;;;;0.20;0.10;;;;;;;;;;5068458;28;20036;-87
2022/10/10 06:36:15;;;;;;;0.20;0.10;;;;;;;;;;5062934;28;20118;-84
2022/10/10 06:38:44;;;;;;;0.20;0.10;;;;;;;;;;5063564;28;20040;-87
2022/10/10 06:41:10;;;;;;;0.20;0.10;;;;;;;;;;5070136;28;20043;-83
2022/10/10 06:43:36;;;;;;;0.20;0.13;;;;;;;;;;5087304;28;20127;-86
2022/10/10 06:46:06;;;;;;;0.20;0.10;;;;;;;;;;5082539;28;20039;-89
2022/10/10 06:48:34;;;;;;;0.20;0.10;;;;;;;;;;5078513;28;20150;-88
2022/10/10 06:51:05;;;;;;;0.20;0.10;;;;;;;;;;5066773;28;20051;-90
2022/10/10 06:53:31;;;;;;;0.20;0.10;;;;;;;;;;5084049;27;20042;-86
2022/10/10 06:55:57;;;;;;;0.20;0.15;;;;;;;;;;5070383;28;20039;-85
2022/10/10 06:58:24;;;;;;;0.30;0.13;;;;;;;;;;5087630;28;20039;-89
2022/10/10 07:00:55;;;;;;;0.20;0.10;;;;;;;;;;5066907;28;20134;-88
2022/10/10 07:03:21;;;;;;;0.20;0.10;;;;;;;;;;5059773;28;20046;-88
2022/10/10 07:05:52;;;;;;;0.20;0.10;;;;;;;;;;5061242;27;20050;-86
2022/10/10 07:08:18;;;;;;;0.20;0.10;;;;;;;;;;5077176;28;20059;-86
2022/10/10 07:10:46;;;;;;;0.20;0.10;;;;;;;;;;5074681;27;20128;-86
2022/10/10 07:13:12;;;;;;;0.20;0.20;;;;;;;;;;5055993;28;20552;-86
2022/10/10 07:15:42;;;;;;;0.20;0.10;;;;;;;;;;5058103;28;20178;-89
2022/10/10 07:18:08;;;;;;;0.30;0.30;;;;;;;;;;5067330;28;20569;-82
2022/10/10 07:20:34;;;;;;;0.22;0.22;;;;;;;;;;5072219;28;20119;-82
2022/10/10 07:23:09;;;;;;;0.20;0.10;;;;;;;;;;5065255;28;20075;-83
2022/10/10 07:25:39;;;;;;;0.20;0.10;;;;;;;;;;5077309;28;21473;-88
2022/10/10 07:28:06;;;;;;;0.20;0.10;;;;;;;;;;5062505;28;20133;-82
2022/10/10 07:30:35;;;;;;;0.20;0.10;;;;;;;;;;5057928;28;20483;-85
2022/10/10 07:33:01;;;;;;;0.22;0.20;;;;;;;;;;5065399;28;20043;-83
2022/10/10 07:35:27;;;;;;;0.20;0.10;;;;;;;;;;5071679;28;20073;-85
2022/10/10 07:37:54;;;;;;;0.20;0.10;;;;;;;;;;5076437;28;20074;-84
2022/10/10 07:40:21;;;;;;;0.20;0.20;;;;;;;;;;5077003;28;20489;-84
2022/10/10 07:42:47;;;;;;;0.20;0.10;;;;;;;;;;5073133;28;20044;-87
2022/10/10 07:45:13;;;;;;;0.20;0.10;;;;;;;;;;5064547;28;20039;-83
2022/10/10 07:47:39;;;;;;;0.20;0.10;;;;;;;;;;5077441;27;20990;-86
2022/10/10 07:50:06;;;;;;;0.20;0.10;;;;;;;;;;5067887;28;20047;-85
2022/10/10 07:52:36;;;;;;;0.20;0.10;;;;;;;;;;5068933;28;20047;-87
2022/10/10 07:55:03;;;;;;;0.20;0.10;;;;;;;;;;5070754;28;20165;-87
2022/10/10 07:57:33;;;;;;;0.20;0.10;;;;;;;;;;5076268;28;20047;-85
2022/10/10 08:00:04;;;;;;;0.20;0.10;;;;;;;;;;5071187;28;20067;-86
2022/10/10 08:02:30;;;;;;;0.20;0.15;;;;;;;;;;5085047;28;20050;-88
2022/10/10 08:04:56;;;;;;;0.20;0.10;;;;;;;;;;5068267;22;20052;-85
2022/10/10 08:07:22;;;;;;;0.20;0.10;;;;;;;;;;5024596;28;21151;-85
2022/10/10 08:09:48;;;;;;;0.20;0.10;;;;;;;;;;5015303;28;20040;-84
2022/10/10 08:12:43;;;;;;;0.20;0.10;;;;;;;;;;5039565;28;20044;-87
2022/10/10 08:15:10;;;;;;;0.20;0.20;;;;;;;;;;5021659;28;20036;-83
2022/10/10 08:17:36;;;;;;;0.20;0.10;;;;;;;;;;5025928;28;20099;-84
2022/10/10 08:20:03;;;;;;;0.20;0.10;;;;;;;;;;5028154;28;20049;-86
2022/10/10 08:22:32;;;;;;;0.20;0.10;;;;;;;;;;5013095;28;20049;-83
2022/10/10 08:25:00;;;;;;;0.20;0.10;;;;;;;;;;5033341;28;20041;-84
2022/10/10 08:27:27;;;;;;;0.38;0.22;;;;;;;;;;5016360;28;20041;-83
2022/10/10 08:29:59;;;;;;;0.20;0.10;;;;;;;;;;5015633;28;20059;-86
2022/10/10 08:32:42;;;;;;;0.20;0.10;;;;;;;;;;5010413;28;20041;-89
2022/10/10 08:35:14;;;;;;;0.20;0.10;;;;;;;;;;5010456;28;20040;-87
2022/10/10 08:37:40;;;;;;;0.20;0.10;;;;;;;;;;5013936;28;20058;-85
2022/10/10 08:40:12;;;;;;;0.20;0.10;;;;;;;;;;5017143;28;20057;-83
2022/10/10 08:42:48;;;;;;;0.20;0.13;;;;;;;;;;5004977;28;20057;-86
2022/10/10 08:45:25;;;;;;;0.20;0.20;;;;;;;;;;5017022;28;20037;-86
2022/10/10 08:47:59;;;;;;;0.35;0.10;;;;;;;;;;5032150;28;20502;-83
2022/10/10 08:50:28;;;;;;;0.20;0.10;;;;;;;;;;5019361;28;20052;-86
2022/10/10 08:53:08;;;;;;;0.20;0.10;;;;;;;;;;5031982;28;20052;-85
2022/10/10 08:55:35;;;;;;;0.20;0.20;;;;;;;;;;5023669;28;20498;-84
2022/10/10 08:58:04;;;;;;;0.20;0.10;;;;;;;;;;5014461;28;20091;-83
2022/10/10 09:00:32;;;;;;;0.20;0.10;;;;;;;;;;5019038;28;20072;-86
2022/10/10 09:03:00;;;;;;;0.20;0.10;;;;;;;;;;5032280;28;20060;-85
2022/10/10 09:05:45;;;;;;;0.50;0.43;;;;;;;;;;5016650;28;20742;-85
2022/10/10 09:08:26;;;;;;;0.20;0.20;;;;;;;;;;5026775;28;20051;-83
2022/10/10 09:11:11;;;;;;;0.20;0.10;;;;;;;;;;5025284;28;20132;-85
2022/10/10 09:13:40;;;;;;;0.20;0.10;;;;;;;;;;5011690;28;20045;-83
2022/10/10 09:16:26;;;;;;;0.20;0.10;;;;;;;;;;5011230;28;20075;-83
2022/10/10 09:19:10;;;;;;;0.20;0.10;;;;;;;;;;5028154;28;20069;-87
2022/10/10 09:21:38;;;;;;;0.30;0.20;;;;;;;;;;5023480;28;20040;-85
2022/10/10 09:24:09;;;;;;;0.55;0.35;;;;;;;;;;5034871;28;20033;-85
2022/10/10 09:26:39;;;;;;;0.20;0.10;;;;;;;;;;5014345;28;20338;-84
2022/10/10 09:29:35;;;;;;;0.20;0.10;;;;;;;;;;5030891;28;20044;-82
2022/10/10 09:32:10;;;;;;;0.20;0.10;;;;;;;;;;5000553;28;20049;-83
2022/10/10 09:34:39;;;;;;;0.28;0.20;;;;;;;;;;5017399;28;20130;-84
2022/10/10 09:37:15;;;;;;;0.20;0.10;;;;;;;;;;5024621;28;20410;-85
2022/10/10 09:39:44;;;;;;;0.20;0.10;;;;;;;;;;5033472;28;20570;-82
2022/10/10 09:42:11;;;;;;;0.20;0.10;;;;;;;;;;5008972;28;20045;-84
2022/10/10 09:44:39;;;;;;;0.20;0.10;;;;;;;;;;5021748;28;20041;-83
2022/10/10 09:47:08;;;;;;;0.20;0.10;;;;;;;;;;5032896;28;20041;-85
2022/10/10 09:49:34;;;;;;;0.20;0.10;;;;;;;;;;5033878;28;20047;-87
2022/10/10 09:52:02;;;;;;;0.20;0.10;;;;;;;;;;5017249;28;20037;-86
2022/10/10 09:54:28;;;;;;;0.20;0.10;;;;;;;;;;5028438;28;20115;-82
2022/10/10 09:56:56;;;;;;;0.20;0.17;;;;;;;;;;4994890;28;20067;-84
2022/10/10 09:59:38;;;;;;;0.20;0.10;;;;;;;;;;5009686;28;20045;-83
2022/10/10 10:02:11;;;;;;;0.20;0.10;;;;;;;;;;5013448;28;20085;-84
2022/10/10 10:04:37;;;;;;;0.20;0.20;;;;;;;;;;5014948;28;20052;-81
2022/10/10 10:07:17;;;;;;;0.20;0.10;;;;;;;;;;5031760;28;20040;-84
2022/10/10 10:10:10;;;;;;;0.20;0.10;;;;;;;;;;5019841;28;20041;-87
2022/10/10 10:12:46;;;;;;;0.20;0.10;;;;;;;;;;5044131;28;20060;-85
2022/10/10 10:15:20;;;;;;;0.65;0.35;;;;;;;;;;5030771;28;20566;-85
2022/10/10 10:18:06;;;;;;;0.20;0.10;;;;;;;;;;5033064;28;20060;-85
2022/10/10 10:20:37;;;;;;;0.20;0.10;;;;;;;;;;4983032;28;20094;-84
2022/10/10 10:23:03;;;;;;;0.20;0.10;;;;;;;;;;5018950;28;20045;-85
2022/10/10 10:25:30;;;;;;;0.20;0.10;;;;;;;;;;5016796;28;20927;-84
2022/10/10 10:28:12;;;;;;;0.20;0.10;;;;;;;;;;5019192;28;20490;-84
2022/10/10 10:30:38;;;;;;;0.20;0.10;;;;;;;;;;5014957;28;20080;-86
2022/10/10 10:33:18;;;;;;;0.32;0.32;;;;;;;;;;5018709;28;21282;-85
2022/10/10 10:35:47;;;;;;;0.20;0.10;;;;;;;;;;5016481;28;20727;-86
2022/10/10 10:38:20;;;;;;;0.20;0.10;;;;;;;;;;5031557;28;20880;-84
2022/10/10 10:40:49;;;;;;;0.20;0.10;;;;;;;;;;5011160;28;20045;-84
2022/10/10 10:43:18;;;;;;;0.55;0.35;;;;;;;;;;5017767;28;20040;-84
2022/10/10 10:45:47;;;;;;;0.20;0.10;;;;;;;;;;5029604;28;20049;-83
2022/10/10 10:48:22;;;;;;;0.30;0.20;;;;;;;;;;5017222;28;20037;-85
2022/10/10 10:50:49;;;;;;;0.30;0.30;;;;;;;;;;5012935;28;20045;-83
2022/10/10 10:53:21;;;;;;;0.20;0.10;;;;;;;;;;5020044;28;20045;-86
2022/10/10 10:55:47;;;;;;;0.20;0.10;;;;;;;;;;5021473;28;20053;-85
2022/10/10 10:58:30;;;;;;;0.20;0.10;;;;;;;;;;5012078;28;20060;-86
2022/10/10 11:01:38;;;;;;;0.65;0.57;;;;;;;;;;5011330;28;20454;-87
2022/10/10 11:04:23;;;;;;;0.20;0.10;;;;;;;;;;4924506;28;20089;-85
2022/10/10 11:06:58;;;;;;;0.20;0.10;;;;;;;;;;4949768;28;20749;-86
2022/10/10 11:09:45;;;;;;;0.20;0.10;;;;;;;;;;5003538;28;20582;-86
2022/10/10 11:12:30;;;;;;;4.65;0.38;;;;;;;;;;5023768;28;20041;-87
2022/10/10 11:14:59;;;;;;;0.20;0.10;;;;;;;;;;5026240;28;20048;-83
2022/10/10 11:17:30;;;;;;;0.52;0.52;;;;;;;;;;5027462;28;20128;-85
2022/10/10 11:19:59;;;;;;;0.30;0.20;;;;;;;;;;5015095;28;20037;-83
2022/10/10 11:22:27;;;;;;;0.20;0.15;;;;;;;;;;5010453;28;20041;-84
2022/10/10 11:24:53;;;;;;;0.20;0.10;;;;;;;;;;5012282;28;20033;-86
2022/10/10 11:27:26;;;;;;;0.20;0.20;;;;;;;;;;5009797;28;20041;-83
2022/10/10 11:30:11;;;;;;;0.20;0.10;;;;;;;;;;5023271;28;20052;-86
2022/10/10 11:32:41;;;;;;;0.20;0.13;;;;;;;;;;5028520;28;20057;-84
2022/10/10 11:35:13;;;;;;;0.20;0.10;;;;;;;;;;5029507;28;20055;-86
2022/10/10 11:37:45;;;;;;;0.30;0.30;;;;;;;;;;5020104;28;20047;-86
2022/10/10 11:40:23;;;;;;;0.20;0.10;;;;;;;;;;5012314;28;20144;-85
2022/10/10 11:42:52;;;;;;;0.20;0.10;;;;;;;;;;5029912;28;20116;-83
2022/10/10 11:45:27;;;;;;;0.20;0.10;;;;;;;;;;5016595;28;20037;-83
2022/10/10 11:48:03;;;;;;;0.20;0.10;;;;;;;;;;5029611;28;20072;-84
2022/10/10 11:50:31;;;;;;;0.20;0.10;;;;;;;;;;5035394;28;20040;-82
2022/10/10 11:53:04;;;;;;;0.20;0.10;;;;;;;;;;5020221;28;20097;-83
2022/10/10 11:55:36;;;;;;;0.20;0.10;;;;;;;;;;5027048;28;20065;-83
2022/10/10 11:58:05;;;;;;;0.20;0.10;;;;;;;;;;5007813;28;20037;-84
2022/10/10 12:00:36;;;;;;;0.20;0.10;;;;;;;;;;5032171;28;20380;-84
2022/10/10 12:03:03;;;;;;;0.30;0.20;;;;;;;;;;5029679;28;20537;-82
2022/10/10 12:05:36;;;;;;;0.20;0.10;;;;;;;;;;5026589;28;20038;-84
2022/10/10 12:08:06;;;;;;;0.30;0.30;;;;;;;;;;5017972;28;20074;-85
2022/10/10 12:10:42;;;;;;;0.20;0.10;;;;;;;;;;5028838;28;20067;-84
2022/10/10 12:13:17;;;;;;;0.20;0.10;;;;;;;;;;5014142;28;20048;-83
2022/10/10 12:15:44;;;;;;;0.20;0.10;;;;;;;;;;5024991;28;20036;-84
2022/10/10 12:18:29;;;;;;;0.20;0.10;;;;;;;;;;5024908;28;20045;-86
2022/10/10 12:21:06;;;;;;;0.20;0.10;;;;;;;;;;5033163;28;20065;-84
2022/10/10 12:23:32;;;;;;;0.20;0.10;;;;;;;;;;5011386;28;20125;-83
2022/10/10 12:25:59;;;;;;;0.20;0.10;;;;;;;;;;5029973;28;20057;-84
2022/10/10 12:28:36;;;;;;;0.20;0.10;;;;;;;;;;5030162;28;20048;-84
2022/10/10 12:31:02;;;;;;;0.20;0.10;;;;;;;;;;5040568;28;20471;-83
2022/10/10 12:33:28;;;;;;;0.20;0.20;;;;;;;;;;5014790;28;20045;-82
2022/10/10 12:35:54;;;;;;;0.20;0.10;;;;;;;;;;5016171;28;20132;-83
2022/10/10 12:38:20;;;;;;;0.20;0.10;;;;;;;;;;5019445;28;20072;-84
2022/10/10 12:40:55;;;;;;;0.20;0.10;;;;;;;;;;5036357;28;20128;-83
2022/10/10 12:43:23;;;;;;;0.40;0.30;;;;;;;;;;5034454;28;20029;-84
2022/10/10 12:45:57;;;;;;;0.20;0.10;;;;;;;;;;5033905;28;20041;-84
2022/10/10 12:48:23;;;;;;;0.20;0.20;;;;;;;;;;5008718;28;20875;-83
2022/10/10 12:50:57;;;;;;;0.20;0.10;;;;;;;;;;4998789;28;20036;-83
2022/10/10 12:53:25;;;;;;;0.20;0.20;;;;;;;;;;5027709;28;20541;-82
2022/10/10 12:55:53;;;;;;;0.20;0.10;;;;;;;;;;5015902;28;20474;-85
2022/10/10 12:58:22;;;;;;;0.20;0.10;;;;;;;;;;5015299;28;20044;-81
2022/10/10 13:00:48;;;;;;;0.20;0.10;;;;;;;;;;5015554;28;20029;-85
2022/10/10 13:03:19;;;;;;;0.20;0.10;;;;;;;;;;5035305;28;20041;-85
2022/10/10 13:05:47;;;;;;;0.20;0.10;;;;;;;;;;5020651;28;20059;-85
2022/10/10 13:08:24;;;;;;;0.20;0.10;;;;;;;;;;5017424;28;20037;-84
2022/10/10 13:11:10;;;;;;;0.20;0.03;;;;;;;;;;5032224;28;20033;-87
2022/10/10 13:13:37;;;;;;;0.20;0.10;;;;;;;;;;5030195;28;20049;-84
2022/10/10 13:16:23;;;;;;;0.20;0.10;;;;;;;;;;5016003;28;20033;-84
2022/10/10 13:18:54;;;;;;;0.20;0.10;;;;;;;;;;5032318;28;20041;-84
2022/10/10 13:21:28;;;;;;;1.38;0.52;;;;;;;;;;5010603;28;20647;-84
2022/10/10 13:23:55;;;;;;;0.20;0.20;;;;;;;;;;5017670;28;20037;-86
2022/10/10 13:26:23;;;;;;;0.22;0.22;;;;;;;;;;5029119;28;20056;-85
2022/10/10 13:28:57;;;;;;;0.20;0.10;;;;;;;;;;5008691;28;20045;-84
2022/10/10 13:31:27;;;;;;;0.20;0.10;;;;;;;;;;5017053;28;20037;-84
2022/10/10 13:34:02;;;;;;;0.20;0.13;;;;;;;;;;5020914;28;20041;-84
2022/10/10 13:36:29;;;;;;;0.20;0.10;;;;;;;;;;5019388;28;20102;-84
2022/10/10 13:38:58;;;;;;;0.20;0.10;;;;;;;;;;5017252;28;20316;-85
2022/10/10 13:41:25;;;;;;;0.22;0.15;;;;;;;;;;5047149;28;20045;-81
2022/10/10 13:44:00;;;;;;;0.20;0.10;;;;;;;;;;5017851;28;20039;-83
2022/10/10 13:46:36;;;;;;;0.20;0.10;;;;;;;;;;5024712;28;20036;-85
2022/10/10 13:49:12;;;;;;;0.20;0.10;;;;;;;;;;5022303;28;20045;-85
2022/10/10 13:51:43;;;;;;;0.20;0.10;;;;;;;;;;5037009;28;20167;-84
2022/10/10 13:54:27;;;;;;;0.20;0.20;;;;;;;;;;5036727;28;20049;-84
2022/10/10 13:56:54;;;;;;;0.20;0.10;;;;;;;;;;5024897;28;20037;-85
2022/10/10 13:59:21;;;;;;;0.20;0.20;;;;;;;;;;5006039;28;20037;-83
2022/10/10 14:01:49;;;;;;;0.20;0.10;;;;;;;;;;5033475;28;20884;-84
2022/10/10 14:04:26;;;;;;;0.43;0.43;;;;;;;;;;5065596;22;20036;-88
2022/10/10 14:07:24;;;;;;;0.20;0.10;;;;;;;;;;5075415;28;20052;-91
2022/10/10 14:09:53;;;;;;;0.20;0.10;;;;;;;;;;5000505;28;20437;-86
2022/10/10 14:12:24;;;;;;;0.20;0.10;;;;;;;;;;5023802;28;20564;-88
2022/10/10 14:14:57;;;;;;;0.20;0.10;;;;;;;;;;5054222;28;20275;-87
2022/10/10 14:17:34;;;;;;;0.20;0.10;;;;;;;;;;5086748;28;20486;-88
2022/10/10 14:20:30;;;;;;;0.20;0.10;;;;;;;;;;5080741;28;20093;-90
2022/10/10 14:23:10;;;;;;;0.20;0.10;;;;;;;;;;4998068;28;20116;-88
2022/10/10 14:25:48;;;;;;;0.20;0.10;;;;;;;;;;5050680;28;20044;-88
2022/10/10 14:28:16;;;;;;;0.20;0.10;;;;;;;;;;5073242;28;20406;-85
2022/10/10 14:30:44;;;;;;;0.20;0.10;;;;;;;;;;5053154;28;20071;-84
2022/10/10 14:33:15;;;;;;;0.20;0.10;;;;;;;;;;5075391;28;20036;-83
2022/10/10 14:35:51;;;;;;;;;;;;;;;;;;;;;
2022/10/10 14:38:29;;;;;;;0.20;0.10;;;;;;;;;;5059804;28;20498;-83
2022/10/10 14:41:09;;;;;;;;;;;;;;;;;;;;;
2022/10/10 14:43:41;;;;;;;0.20;0.10;;;;;;;;;;5073113;28;20039;-88
2022/10/10 14:46:20;;;;;;;0.20;0.10;;;;;;;;;;5057411;28;20051;-88
2022/10/10 14:48:50;;;;;;;0.20;0.10;;;;;;;;;;5059854;28;20041;-88
2022/10/10 14:51:26;;;;;;;0.20;0.10;;;;;;;;;;5074379;28;20538;-87
2022/10/10 14:53:58;;;;;;;0.20;0.10;;;;;;;;;;5062104;28;20101;-86
2022/10/10 14:56:24;;;;;;;0.20;0.10;;;;;;;;;;5089959;22;20054;-87
2022/10/10 14:59:09;;;;;;;0.20;0.10;;;;;;;;;;5097054;27;20706;-87
2022/10/10 15:01:44;;;;;;;0.20;0.10;;;;;;;;;;5067027;28;20043;-88
2022/10/10 15:04:16;;;;;;;0.20;0.10;;;;;;;;;;5080358;28;20055;-86
2022/10/10 15:06:42;;;;;;;0.20;0.00;;;;;;;;;;5112915;27;20043;-87